createdAt,value
2023-05-11T00:02:09.575Z,12.53
2023-05-11T00:04:38.243Z,12.48
2023-05-11T00:07:07.813Z,12.53
2023-05-11T00:09:35.702Z,12.48
2023-05-11T00:12:04.669Z,12.51
2023-05-11T00:14:33.976Z,12.50
2023-05-11T00:17:01.689Z,12.49
2023-05-11T00:19:31.582Z,12.52
2023-05-11T00:22:00.205Z,12.51
2023-05-11T00:24:27.784Z,12.51
2023-05-11T00:26:56.038Z,12.54
2023-05-11T00:29:23.485Z,12.54
2023-05-11T00:31:51.292Z,12.57
2023-05-11T00:34:18.740Z,12.58
2023-05-11T00:36:46.698Z,12.56
2023-05-11T00:39:14.526Z,12.65
2023-05-11T00:41:42.137Z,12.62
2023-05-11T00:44:09.827Z,12.67
2023-05-11T00:46:38.231Z,12.71
2023-05-11T00:49:06.127Z,12.67
2023-05-11T00:51:35.190Z,12.63
2023-05-11T00:54:02.945Z,12.48
2023-05-11T00:56:30.956Z,12.64
2023-05-11T00:58:58.368Z,12.63
2023-05-11T01:01:26.856Z,12.64
2023-05-11T01:03:55.148Z,12.65
2023-05-11T01:06:48.125Z,12.68
2023-05-11T01:09:44.784Z,12.68
2023-05-11T01:12:37.445Z,12.64
2023-05-11T01:15:37.363Z,12.62
2023-05-11T01:18:40.364Z,12.61
2023-05-11T01:21:16.166Z,12.52
2023-05-11T01:24:32.255Z,12.48
2023-05-11T01:27:12.347Z,12.43
2023-05-11T01:29:58.584Z,12.53
2023-05-11T01:32:30.698Z,12.49
2023-05-11T01:35:06.419Z,12.44
2023-05-11T01:37:35.942Z,12.44
2023-05-11T01:40:13.121Z,12.48
2023-05-11T01:42:47.685Z,12.43
2023-05-11T01:45:16.940Z,12.40
2023-05-11T01:47:48.477Z,12.40
2023-05-11T01:50:19.734Z,12.42
2023-05-11T01:52:50.809Z,12.38
2023-05-11T01:55:22.488Z,12.40
2023-05-11T01:57:54.726Z,12.35
2023-05-11T02:00:23.976Z,12.38
2023-05-11T02:02:56.883Z,12.35
2023-05-11T02:05:25.323Z,12.32
2023-05-11T02:07:54.981Z,12.27
2023-05-11T02:10:26.681Z,12.23
2023-05-11T02:12:55.144Z,12.17
2023-05-11T02:15:27.718Z,12.04
2023-05-11T02:17:57.698Z,12.14
2023-05-11T02:20:26.921Z,12.09
2023-05-11T02:22:55.889Z,12.18
2023-05-11T02:25:26.735Z,12.12
2023-05-11T02:27:54.386Z,12.09
2023-05-11T02:30:23.963Z,12.05
2023-05-11T02:32:56.843Z,12.13
2023-05-11T02:35:28.920Z,12.09
2023-05-11T02:38:00.885Z,12.07
2023-05-11T02:40:34.669Z,12.12
2023-05-11T02:43:13.856Z,12.12
2023-05-11T02:45:52.405Z,12.08
2023-05-11T02:48:25.303Z,12.10
2023-05-11T02:50:55.798Z,12.11
2023-05-11T02:53:28.950Z,12.11
2023-05-11T02:55:57.832Z,12.06
2023-05-11T02:58:25.851Z,12.06
2023-05-11T03:01:06.721Z,12.12
2023-05-11T03:03:34.726Z,12.11
2023-05-11T03:06:02.507Z,12.12
2023-05-11T03:08:31.486Z,12.10
2023-05-11T03:10:59.664Z,12.02
2023-05-11T03:13:29.076Z,12.04
2023-05-11T03:15:59.053Z,12.11
2023-05-11T03:18:26.976Z,12.12
2023-05-11T03:20:55.161Z,12.11
2023-05-11T03:23:23.632Z,12.13
2023-05-11T03:25:52.052Z,12.13
2023-05-11T03:28:23.645Z,12.16
2023-05-11T03:30:59.988Z,12.01
2023-05-11T03:33:27.771Z,12.08
2023-05-11T03:35:57.662Z,12.06
2023-05-11T03:38:28.369Z,12.16
2023-05-11T03:40:59.037Z,12.18
2023-05-11T03:43:30.303Z,12.14
2023-05-11T03:45:59.271Z,12.08
2023-05-11T03:48:27.578Z,12.34
2023-05-11T03:50:56.345Z,12.26
2023-05-11T03:53:24.576Z,12.32
2023-05-11T03:55:53.095Z,12.34
2023-05-11T03:58:20.657Z,12.34
2023-05-11T04:00:49.502Z,12.36
2023-05-11T04:03:18.552Z,12.33
2023-05-11T04:05:46.376Z,12.36
2023-05-11T04:08:14.380Z,12.43
2023-05-11T04:10:42.071Z,12.37
2023-05-11T04:13:09.433Z,12.39
2023-05-11T04:15:37.832Z,12.37
2023-05-11T04:18:05.283Z,12.41
2023-05-11T04:20:33.335Z,12.39
2023-05-11T04:23:02.930Z,12.42
2023-05-11T04:25:31.915Z,12.42
2023-05-11T04:27:59.459Z,12.37
2023-05-11T04:30:27.154Z,12.37
2023-05-11T04:32:54.846Z,12.41
2023-05-11T04:35:25.079Z,12.26
2023-05-11T04:37:52.808Z,12.42
2023-05-11T04:40:22.577Z,12.41
2023-05-11T04:42:50.607Z,12.51
2023-05-11T04:45:21.527Z,12.50
2023-05-11T04:47:49.051Z,12.62
2023-05-11T04:50:18.058Z,12.61
2023-05-11T04:52:45.789Z,12.60
2023-05-11T04:55:16.397Z,12.52
2023-05-11T04:57:43.960Z,12.52
2023-05-11T05:00:12.762Z,12.48
2023-05-11T05:02:41.381Z,12.43
2023-05-11T05:05:09.710Z,12.42
2023-05-11T05:07:37.069Z,12.41
2023-05-11T05:10:09.136Z,12.43
2023-05-11T05:12:37.313Z,12.52
2023-05-11T05:15:05.910Z,12.45
2023-05-11T05:17:33.514Z,12.43
2023-05-11T05:20:04.645Z,12.56
2023-05-11T05:22:35.025Z,12.72
2023-05-11T05:25:04.023Z,12.71
2023-05-11T05:27:34.973Z,12.79
2023-05-11T05:30:07.040Z,12.96
2023-05-11T05:32:34.528Z,12.97
2023-05-11T05:35:02.438Z,13.00
2023-05-11T05:37:30.466Z,13.23
2023-05-11T05:39:58.555Z,13.28
2023-05-11T05:42:27.072Z,13.40
2023-05-11T05:44:54.894Z,13.73
2023-05-11T05:47:23.124Z,13.67
2023-05-11T05:49:51.900Z,13.71
2023-05-11T05:52:19.540Z,14.09
2023-05-11T05:54:51.720Z,13.91
2023-05-11T05:57:21.281Z,14.10
2023-05-11T05:59:49.029Z,14.23
2023-05-11T06:02:19.113Z,14.40
2023-05-11T06:04:47.522Z,14.22
2023-05-11T06:07:14.783Z,14.04
2023-05-11T06:09:42.368Z,14.08
2023-05-11T06:12:10.390Z,13.90
2023-05-11T06:14:44.017Z,14.24
2023-05-11T06:17:12.516Z,14.50
2023-05-11T06:19:40.792Z,14.64
2023-05-11T06:22:10.814Z,14.67
2023-05-11T06:24:40.700Z,14.53
2023-05-11T06:27:08.396Z,14.61
2023-05-11T06:29:36.362Z,14.75
2023-05-11T06:32:05.167Z,14.97
2023-05-11T06:34:34.629Z,15.02
2023-05-11T06:37:02.810Z,15.20
2023-05-11T06:39:30.835Z,15.78
2023-05-11T06:42:01.411Z,15.53
2023-05-11T06:44:31.092Z,15.77
2023-05-11T06:46:58.847Z,15.89
2023-05-11T06:49:26.704Z,15.57
2023-05-11T06:51:54.264Z,15.47
2023-05-11T06:54:23.336Z,15.41
2023-05-11T06:56:50.747Z,15.68
2023-05-11T06:59:18.472Z,15.51
2023-05-11T07:01:46.660Z,15.46
2023-05-11T07:04:14.469Z,15.67
2023-05-11T07:06:42.219Z,15.99
2023-05-11T07:09:10.158Z,15.96
2023-05-11T07:11:37.702Z,16.03
2023-05-11T07:14:06.059Z,16.23
2023-05-11T07:16:33.380Z,16.47
2023-05-11T07:19:01.148Z,16.60
2023-05-11T07:21:29.105Z,16.14
2023-05-11T07:23:56.728Z,16.01
2023-05-11T07:26:24.127Z,16.31
2023-05-11T07:28:54.714Z,16.32
2023-05-11T07:31:22.280Z,16.48
2023-05-11T07:33:49.979Z,16.41
2023-05-11T07:36:17.247Z,16.59
2023-05-11T07:38:44.873Z,16.91
2023-05-11T07:41:12.804Z,16.83
2023-05-11T07:43:41.793Z,16.50
2023-05-11T07:46:09.203Z,16.46
2023-05-11T07:48:38.028Z,16.48
2023-05-11T07:51:07.296Z,16.75
2023-05-11T07:53:35.102Z,16.95
2023-05-11T07:56:03.898Z,16.71
2023-05-11T07:58:31.645Z,16.93
2023-05-11T08:00:59.201Z,17.52
2023-05-11T08:03:26.986Z,17.20
2023-05-11T08:05:54.425Z,17.09
2023-05-11T08:08:22.093Z,16.73
2023-05-11T08:10:49.415Z,16.67
2023-05-11T08:13:17.344Z,17.11
2023-05-11T08:15:45.305Z,16.73
2023-05-11T08:18:13.275Z,16.71
2023-05-11T08:20:42.444Z,16.64
2023-05-11T08:23:17.272Z,16.61
2023-05-11T08:25:52.303Z,16.47
2023-05-11T08:28:21.060Z,16.53
2023-05-11T08:30:57.540Z,16.44
2023-05-11T08:33:37.687Z,16.28
2023-05-11T08:36:07.078Z,16.39
2023-05-11T08:38:35.968Z,16.43
2023-05-11T08:41:05.096Z,16.41
2023-05-11T08:43:36.166Z,16.84
2023-05-11T08:46:05.141Z,16.46
2023-05-11T08:48:32.978Z,16.40
2023-05-11T08:51:00.655Z,16.21
2023-05-11T08:53:28.550Z,16.22
2023-05-11T08:55:58.773Z,16.05
2023-05-11T08:58:27.865Z,16.05
2023-05-11T09:00:56.019Z,15.97
2023-05-11T09:03:24.328Z,15.90
2023-05-11T09:05:53.283Z,16.02
2023-05-11T09:08:22.987Z,16.08
2023-05-11T09:10:50.485Z,16.12
2023-05-11T09:13:18.258Z,16.31
2023-05-11T09:15:45.642Z,16.17
2023-05-11T09:18:13.626Z,16.18
2023-05-11T09:20:44.439Z,16.17
2023-05-11T09:23:16.960Z,16.15
2023-05-11T09:25:44.456Z,16.28
2023-05-11T09:28:15.600Z,16.04
2023-05-11T09:30:44.424Z,15.91
2023-05-11T09:33:12.076Z,15.94
2023-05-11T09:35:39.446Z,16.01
2023-05-11T09:38:11.891Z,15.96
2023-05-11T09:40:51.546Z,16.05
2023-05-11T09:43:20.842Z,16.15
2023-05-11T09:45:50.541Z,16.21
2023-05-11T09:48:21.312Z,16.28
2023-05-11T09:50:50.384Z,16.19
2023-05-11T09:53:18.604Z,16.55
2023-05-11T09:55:54.259Z,16.42
2023-05-11T09:58:22.375Z,16.04
2023-05-11T10:00:54.090Z,15.97
2023-05-11T10:03:22.809Z,15.88
2023-05-11T10:06:02.000Z,15.95
2023-05-11T10:08:34.339Z,16.07
2023-05-11T10:11:06.973Z,16.33
2023-05-11T10:13:36.926Z,16.15
2023-05-11T10:16:05.860Z,15.93
2023-05-11T10:18:34.528Z,16.14
2023-05-11T10:21:05.004Z,16.21
2023-05-11T10:23:36.569Z,16.41
2023-05-11T10:26:05.435Z,16.37
2023-05-11T10:28:33.814Z,15.97
2023-05-11T10:31:03.788Z,16.27
2023-05-11T10:33:32.748Z,16.23
2023-05-11T10:36:00.160Z,16.20
2023-05-11T10:38:28.014Z,16.33
2023-05-11T10:41:13.840Z,16.12
2023-05-11T10:44:07.386Z,16.14
2023-05-11T10:46:50.841Z,15.95
2023-05-11T10:49:27.894Z,16.13
2023-05-11T10:52:31.502Z,16.00
2023-05-11T10:55:20.660Z,16.14
2023-05-11T10:58:00.055Z,16.11
2023-05-11T11:01:05.191Z,16.20
2023-05-11T11:03:33.075Z,16.33
2023-05-11T11:06:01.095Z,16.38
2023-05-11T11:08:28.767Z,16.38
2023-05-11T11:10:56.514Z,15.98
2023-05-11T11:13:24.639Z,15.86
2023-05-11T11:15:58.109Z,15.79
2023-05-11T11:18:27.509Z,15.32
2023-05-11T11:20:57.334Z,15.37
2023-05-11T11:23:40.113Z,15.21
2023-05-11T11:26:10.217Z,15.15
2023-05-11T11:29:01.838Z,15.13
2023-05-11T11:31:34.600Z,15.10
2023-05-11T11:34:30.068Z,14.97
2023-05-11T11:37:02.127Z,14.84
2023-05-11T11:39:46.692Z,14.89
2023-05-11T11:42:32.959Z,14.83
2023-05-11T11:45:32.731Z,14.67
2023-05-11T11:48:13.448Z,14.40
2023-05-11T11:50:45.877Z,14.49
2023-05-11T11:53:42.611Z,14.42
2023-05-11T11:56:16.088Z,14.39
2023-05-11T11:58:44.352Z,14.42
2023-05-11T12:01:20.802Z,14.41
2023-05-11T12:04:35.101Z,14.30
2023-05-11T12:07:06.895Z,14.11
2023-05-11T12:09:37.061Z,13.88
2023-05-11T12:12:06.423Z,13.92
2023-05-11T12:14:35.015Z,14.01
2023-05-11T12:17:16.732Z,13.93
2023-05-11T12:19:44.766Z,13.55
2023-05-11T12:22:14.552Z,13.39
2023-05-11T12:24:43.572Z,13.18
2023-05-11T12:27:11.479Z,13.14
2023-05-11T12:29:39.571Z,13.06
2023-05-11T12:32:28.178Z,12.99
2023-05-11T12:35:04.661Z,12.95
2023-05-11T12:37:32.553Z,12.84
2023-05-11T12:40:00.507Z,12.82
2023-05-11T12:42:27.939Z,12.72
2023-05-11T12:44:56.124Z,12.67
2023-05-11T12:47:23.875Z,12.67
2023-05-11T12:49:51.873Z,12.64
2023-05-11T12:52:19.237Z,12.44
2023-05-11T12:55:00.238Z,12.37
2023-05-11T12:57:31.842Z,12.46
2023-05-11T13:00:11.958Z,12.51
2023-05-11T13:02:54.261Z,12.47
2023-05-11T13:05:26.793Z,12.52
2023-05-11T13:08:02.169Z,12.50
2023-05-11T13:10:29.873Z,12.48
2023-05-11T13:12:57.570Z,12.48
2023-05-11T13:15:28.823Z,12.44
2023-05-11T13:17:59.469Z,12.52
2023-05-11T13:20:29.798Z,12.59
2023-05-11T13:23:09.280Z,12.60
2023-05-11T13:25:49.081Z,12.67
2023-05-11T13:28:20.785Z,12.60
2023-05-11T13:30:49.010Z,12.54
2023-05-11T13:33:16.374Z,12.72
2023-05-11T13:35:45.159Z,12.72
2023-05-11T13:38:19.867Z,12.66
2023-05-11T13:40:47.745Z,12.72
2023-05-11T13:43:15.257Z,12.73
2023-05-11T13:45:42.955Z,12.78
2023-05-11T13:48:11.031Z,12.53
2023-05-11T13:50:38.944Z,12.56
2023-05-11T13:53:06.507Z,12.53
2023-05-11T13:55:36.725Z,12.51
2023-05-11T13:58:06.318Z,12.39
2023-05-11T14:00:35.337Z,12.48
2023-05-11T14:03:04.216Z,12.52
2023-05-11T14:05:32.531Z,12.46
2023-05-11T14:07:59.840Z,12.39
2023-05-11T14:10:27.485Z,12.36
2023-05-11T14:12:54.858Z,12.59
2023-05-11T14:15:22.510Z,12.35
2023-05-11T14:17:50.062Z,12.55
2023-05-11T14:20:18.115Z,12.69
2023-05-11T14:22:45.776Z,12.60
2023-05-11T14:25:13.403Z,12.68
2023-05-11T14:27:40.862Z,12.60
2023-05-11T14:30:09.353Z,12.66
2023-05-11T14:32:36.852Z,12.57
2023-05-11T14:35:04.597Z,12.62
2023-05-11T14:37:31.871Z,12.57
2023-05-11T14:40:00.115Z,12.54
2023-05-11T14:42:29.613Z,12.56
2023-05-11T14:44:57.557Z,12.58
2023-05-11T14:47:25.263Z,12.60
2023-05-11T14:49:53.678Z,12.67
2023-05-11T14:52:23.140Z,12.74
2023-05-11T14:54:51.145Z,12.75
2023-05-11T14:57:19.560Z,12.80
2023-05-11T14:59:58.344Z,12.80
2023-05-11T15:02:26.964Z,12.84
2023-05-11T15:04:55.370Z,12.87
2023-05-11T15:07:22.760Z,12.93
2023-05-11T15:09:50.916Z,12.92
2023-05-11T15:12:18.250Z,12.97
2023-05-11T15:14:46.420Z,12.80
2023-05-11T15:17:13.777Z,13.07
2023-05-11T15:19:41.544Z,13.11
2023-05-11T15:22:09.145Z,13.05
2023-05-11T15:24:37.113Z,13.07
2023-05-11T15:27:04.633Z,13.21
2023-05-11T15:29:32.734Z,13.26
2023-05-11T15:32:01.544Z,13.26
2023-05-11T15:34:29.499Z,13.32
2023-05-11T15:36:59.521Z,13.37
2023-05-11T15:39:28.377Z,13.35
2023-05-11T15:41:56.504Z,13.35
2023-05-11T15:44:24.595Z,13.41
2023-05-11T15:46:51.938Z,13.42
2023-05-11T15:49:19.653Z,13.41
2023-05-11T15:51:47.097Z,13.46
2023-05-11T15:54:15.124Z,13.47
2023-05-11T15:56:42.554Z,13.52
2023-05-11T15:59:13.407Z,13.53
2023-05-11T16:01:40.878Z,13.58
2023-05-11T16:04:09.873Z,13.62
2023-05-11T16:06:38.982Z,13.66
2023-05-11T16:09:06.891Z,13.66
2023-05-11T16:11:34.443Z,13.60
2023-05-11T16:14:03.555Z,13.66
2023-05-11T16:16:31.265Z,13.63
2023-05-11T16:19:00.648Z,13.62
2023-05-11T16:21:28.941Z,13.53
2023-05-11T16:23:56.891Z,13.41
2023-05-11T16:26:24.328Z,13.43
2023-05-11T16:28:52.106Z,13.41
2023-05-11T16:31:19.506Z,13.33
2023-05-11T16:33:47.658Z,13.29
2023-05-11T16:36:15.101Z,13.21
2023-05-11T16:38:42.791Z,13.18
2023-05-11T16:41:11.598Z,13.05
2023-05-11T16:43:42.028Z,12.89
2023-05-11T16:46:10.003Z,12.79
2023-05-11T16:48:37.874Z,12.68
2023-05-11T16:51:05.299Z,12.75
2023-05-11T16:53:34.431Z,12.66
2023-05-11T16:56:02.056Z,12.60
2023-05-11T16:58:31.152Z,12.69
2023-05-11T17:00:59.540Z,12.71
2023-05-11T17:03:27.403Z,12.70
2023-05-11T17:05:55.005Z,12.72
2023-05-11T17:08:24.700Z,12.67
2023-05-11T17:10:52.185Z,12.66
2023-05-11T17:13:20.067Z,12.73
2023-05-11T17:15:47.524Z,12.78
2023-05-11T17:18:15.182Z,12.77
2023-05-11T17:20:42.821Z,12.79
2023-05-11T17:23:10.666Z,12.77
2023-05-11T17:25:38.021Z,12.79
2023-05-11T17:28:05.755Z,12.79
2023-05-11T17:30:47.206Z,12.77
2023-05-11T17:33:17.427Z,12.80
2023-05-11T17:35:45.031Z,12.79
2023-05-11T17:38:12.649Z,12.71
2023-05-11T17:40:42.535Z,12.71
2023-05-11T17:43:11.977Z,12.58
2023-05-11T17:45:39.393Z,12.54
2023-05-11T17:48:07.097Z,12.39
2023-05-11T17:50:37.047Z,12.40
2023-05-11T17:53:05.588Z,12.26
2023-05-11T17:55:32.978Z,12.29
2023-05-11T17:58:00.570Z,12.25
2023-05-11T18:00:28.361Z,12.17
2023-05-11T18:02:57.597Z,12.24
2023-05-11T18:05:40.557Z,12.23
2023-05-11T18:08:14.554Z,12.04
2023-05-11T18:10:42.060Z,12.00
2023-05-11T18:13:09.730Z,11.92
2023-05-11T18:15:38.024Z,11.83
2023-05-11T18:18:05.761Z,11.79
2023-05-11T18:20:33.527Z,11.93
2023-05-11T18:23:01.683Z,11.91
2023-05-11T18:25:32.148Z,11.90
2023-05-11T18:27:59.729Z,11.85
2023-05-11T18:30:31.836Z,11.84
2023-05-11T18:32:59.566Z,11.80
2023-05-11T18:35:26.905Z,11.70
2023-05-11T18:37:54.573Z,11.67
2023-05-11T18:40:22.856Z,11.64
2023-05-11T18:42:53.931Z,11.58
2023-05-11T18:45:21.383Z,11.63
2023-05-11T18:47:49.430Z,11.54
2023-05-11T18:50:16.968Z,11.59
2023-05-11T18:52:44.646Z,11.56
2023-05-11T18:55:11.897Z,11.50
2023-05-11T18:57:40.290Z,11.56
2023-05-11T19:00:11.590Z,11.50
2023-05-11T19:02:39.955Z,11.58
2023-05-11T19:05:07.889Z,11.57
2023-05-11T19:07:35.523Z,11.63
2023-05-11T19:10:03.916Z,11.63
2023-05-11T19:12:31.587Z,11.57
2023-05-11T19:14:58.979Z,11.67
2023-05-11T19:17:26.679Z,11.61
2023-05-11T19:19:54.036Z,11.71
2023-05-11T19:22:22.374Z,11.72
2023-05-11T19:24:50.338Z,11.68
2023-05-11T19:27:18.065Z,11.70
2023-05-11T19:29:45.433Z,11.68
2023-05-11T19:32:13.161Z,11.68
2023-05-11T19:34:40.611Z,11.75
2023-05-11T19:37:09.264Z,11.73
2023-05-11T19:39:36.627Z,11.71
2023-05-11T19:42:04.361Z,11.69
2023-05-11T19:44:34.881Z,11.71
2023-05-11T19:47:02.500Z,11.75
2023-05-11T19:49:29.837Z,11.73
2023-05-11T19:51:57.545Z,11.61
2023-05-11T19:54:24.923Z,11.58
2023-05-11T19:56:52.587Z,11.61
2023-05-11T19:59:20.315Z,11.56
2023-05-11T20:01:48.095Z,11.59
2023-05-11T20:04:15.781Z,11.57
2023-05-11T20:06:43.078Z,11.57
2023-05-11T20:09:10.838Z,11.57
2023-05-11T20:11:38.143Z,11.56
2023-05-11T20:14:06.340Z,11.45
2023-05-11T20:16:33.671Z,11.49
2023-05-11T20:19:01.603Z,11.53
2023-05-11T20:21:29.143Z,11.45
2023-05-11T20:23:56.898Z,11.41
2023-05-11T20:26:24.448Z,11.45
2023-05-11T20:28:52.292Z,11.32
2023-05-11T20:31:21.562Z,11.39
2023-05-11T20:36:19.422Z,11.35
2023-05-11T20:38:47.356Z,11.48
2023-05-11T20:41:14.638Z,11.55
2023-05-11T20:43:42.487Z,11.51
2023-05-11T20:46:11.626Z,11.59
2023-05-11T20:48:41.277Z,11.58
2023-05-11T20:51:09.635Z,11.60
2023-05-11T20:53:37.187Z,11.60
2023-05-11T20:56:04.561Z,11.64
2023-05-11T20:58:32.315Z,11.59
2023-05-11T21:00:59.867Z,11.63
2023-05-11T21:03:27.952Z,11.67
2023-05-11T21:05:56.455Z,11.67
2023-05-11T21:08:24.200Z,11.68
2023-05-11T21:10:51.553Z,11.57
2023-05-11T21:13:19.149Z,11.53
2023-05-11T21:15:46.454Z,11.46
2023-05-11T21:18:14.195Z,11.35
2023-05-11T21:20:42.159Z,11.31
2023-05-11T21:23:10.025Z,11.39
2023-05-11T21:25:37.367Z,11.38
2023-05-11T21:28:05.912Z,11.28
2023-05-11T21:30:33.321Z,11.38
2023-05-11T21:33:01.049Z,11.41
2023-05-11T21:35:28.442Z,11.39
2023-05-11T21:37:57.733Z,11.43
2023-05-11T21:40:25.340Z,11.49
2023-05-11T21:42:53.351Z,11.48
2023-05-11T21:45:20.824Z,11.43
2023-05-11T21:47:48.619Z,11.40
2023-05-11T21:50:17.293Z,11.35
2023-05-11T21:52:45.560Z,11.37
2023-05-11T21:55:12.897Z,11.39
2023-05-11T21:57:40.517Z,11.35
2023-05-11T22:00:11.425Z,11.40
2023-05-11T22:02:39.363Z,11.39
2023-05-11T22:05:06.975Z,11.31
2023-05-11T22:07:34.680Z,11.34
2023-05-11T22:10:02.018Z,11.43
2023-05-11T22:12:29.668Z,11.44
2023-05-11T22:14:57.145Z,11.42
2023-05-11T22:17:25.007Z,11.39
2023-05-11T22:19:52.324Z,11.48
2023-05-11T22:22:19.927Z,11.51
2023-05-11T22:24:47.562Z,11.57
2023-05-11T22:27:16.266Z,11.58
2023-05-11T22:29:46.008Z,11.64
2023-05-11T22:32:13.853Z,11.65
2023-05-11T22:34:41.177Z,11.58
2023-05-11T22:37:08.983Z,11.64
2023-05-11T22:39:36.452Z,11.68
2023-05-11T22:42:04.370Z,11.52
2023-05-11T22:44:31.918Z,11.46
2023-05-11T22:46:59.973Z,11.42
2023-05-11T22:49:27.313Z,11.40
2023-05-11T22:51:58.852Z,11.43
2023-05-11T22:54:27.264Z,11.45
2023-05-11T22:56:54.922Z,11.38
2023-05-11T22:59:22.320Z,11.50
2023-05-11T23:01:50.699Z,11.52
2023-05-11T23:04:18.212Z,11.59
2023-05-11T23:06:45.786Z,11.64
2023-05-11T23:09:13.122Z,11.74
2023-05-11T23:11:40.810Z,11.74
2023-05-11T23:14:08.450Z,11.77
2023-05-11T23:16:36.055Z,11.88
2023-05-11T23:19:03.511Z,11.89
2023-05-11T23:21:31.350Z,11.92
2023-05-11T23:24:00.974Z,11.94
2023-05-11T23:26:28.669Z,11.93
2023-05-11T23:28:56.143Z,11.98
2023-05-11T23:31:23.745Z,11.89
2023-05-11T23:33:51.063Z,11.96
2023-05-11T23:36:18.663Z,11.96
2023-05-11T23:38:45.899Z,12.00
2023-05-11T23:41:13.511Z,11.96
2023-05-11T23:43:40.845Z,12.00
2023-05-11T23:46:08.470Z,12.10
2023-05-11T23:48:35.873Z,12.08
2023-05-11T23:51:03.655Z,12.09
2023-05-11T23:53:30.963Z,12.11
2023-05-11T23:55:58.602Z,12.19
2023-05-11T23:58:25.921Z,12.10
